Time;durP1;ratioP1;P1;durP2;ratioP2;P2;SDS_P1;SDS_P2;PMS_P1;PMS_P2;Temp;Humidity;BMP_temperature;BMP_pressure;BME280_temperature;BME280_humidity;BME280_pressure;Samples;Min_cycle;Max_cycle;Signal;HPM_P1;HPM_P2
2021/10/09 00:00:36;;;;;;;;;;;14.70;99.90;;;;;;5055334;28;19935;-84
2021/10/09 00:03:03;;;;;;;;;;;14.70;99.90;;;;;;5055461;28;20373;-84
2021/10/09 00:05:31;;;;;;;;;;;14.70;99.90;;;;;;5055338;28;19935;-86
2021/10/09 00:07:58;;;;;;;;;;;14.60;99.90;;;;;;5055114;28;19935;-86
2021/10/09 00:10:27;;;;;;;;;;;14.60;99.90;;;;;;5055494;28;19971;-85
2021/10/09 00:12:54;;;;;;;;;;;14.60;99.90;;;;;;5055461;28;19950;-86
2021/10/09 00:15:20;;;;;;;;;;;14.60;99.90;;;;;;5055203;28;19951;-84
2021/10/09 00:17:47;;;;;;;;;;;14.60;99.90;;;;;;5055127;28;20251;-83
2021/10/09 00:20:14;;;;;;;;;;;14.60;99.90;;;;;;5055177;28;20266;-84
2021/10/09 00:22:42;;;;;;;;;;;14.60;99.90;;;;;;5055065;28;20331;-84
2021/10/09 00:25:09;;;;;;;;;;;14.60;99.90;;;;;;5055090;28;19925;-83
2021/10/09 00:27:36;;;;;;;;;;;14.60;99.90;;;;;;5055084;28;19924;-84
2021/10/09 00:30:03;;;;;;;;;;;14.60;99.90;;;;;;5055029;28;19933;-84
2021/10/09 00:32:30;;;;;;;;;;;14.50;99.90;;;;;;5054986;28;19925;-84
2021/10/09 00:34:57;;;;;;;;;;;14.50;99.90;;;;;;5054846;28;20266;-84
2021/10/09 00:37:23;;;;;;;;;;;14.60;99.90;;;;;;5054890;28;20377;-84
2021/10/09 00:39:52;;;;;;;;;;;14.50;99.90;;;;;;5054898;28;19935;-84
2021/10/09 00:42:18;;;;;;;;;;;14.50;99.90;;;;;;5054881;28;19931;-84
2021/10/09 00:44:45;;;;;;;;;;;14.50;99.90;;;;;;5054772;28;19925;-84
2021/10/09 00:47:12;;;;;;;;;;;14.40;99.90;;;;;;5054853;28;19951;-84
2021/10/09 00:49:39;;;;;;;;;;;14.40;99.90;;;;;;5054809;28;20271;-84
2021/10/09 00:52:06;;;;;;;;;;;14.40;99.90;;;;;;5054709;28;19925;-84
2021/10/09 00:54:33;;;;;;;;;;;14.40;99.90;;;;;;5054651;28;19928;-84
2021/10/09 00:57:02;;;;;;;;;;;14.40;99.90;;;;;;5054634;28;20305;-84
2021/10/09 00:59:29;;;;;;;;;;;14.40;99.90;;;;;;5054721;28;20024;-84
2021/10/09 01:01:56;;;;;;;;;;;14.30;99.90;;;;;;5054556;28;19925;-84
2021/10/09 01:04:23;;;;;;;;;;;14.30;99.90;;;;;;5058039;28;19924;-84
2021/10/09 01:06:52;;;;;;;;;;;14.30;99.90;;;;;;5058726;28;19925;-84
2021/10/09 01:09:19;;;;;;;;;;;14.30;99.90;;;;;;5058707;28;19931;-84
2021/10/09 01:11:46;;;;;;;;;;;14.20;99.90;;;;;;5058583;28;20251;-84
2021/10/09 01:14:14;;;;;;;;;;;14.20;99.90;;;;;;5058528;28;19925;-84
2021/10/09 01:16:41;;;;;;;;;;;14.20;99.90;;;;;;5058430;28;19925;-84
2021/10/09 01:19:08;;;;;;;;;;;14.20;99.90;;;;;;5058827;28;19925;-84
2021/10/09 01:21:40;;;;;;;;;;;14.20;99.90;;;;;;5058271;28;20358;-85
2021/10/09 01:24:07;;;;;;;;;;;14.10;99.90;;;;;;5058487;28;19924;-85
2021/10/09 01:26:34;;;;;;;;;;;14.10;99.90;;;;;;5058367;28;19929;-84
2021/10/09 01:29:01;;;;;;;;;;;14.00;99.90;;;;;;5058270;28;19925;-85
2021/10/09 01:31:27;;;;;;;;;;;14.00;99.90;;;;;;5058079;28;19924;-85
2021/10/09 01:33:54;;;;;;;;;;;13.90;99.90;;;;;;5058398;28;19928;-85
2021/10/09 01:36:21;;;;;;;;;;;13.90;99.90;;;;;;5058283;28;19925;-85
2021/10/09 01:38:52;;;;;;;;;;;13.90;99.90;;;;;;5058218;28;20309;-85
2021/10/09 01:41:19;;;;;;;;;;;13.90;99.90;;;;;;5057883;28;19925;-85
2021/10/09 01:43:46;;;;;;;;;;;13.80;99.90;;;;;;5057878;28;19935;-85
2021/10/09 01:46:13;;;;;;;;;;;13.80;99.90;;;;;;5058031;28;19925;-84
2021/10/09 01:48:40;;;;;;;;;;;13.70;99.90;;;;;;5058015;28;19931;-84
2021/10/09 01:51:07;;;;;;;;;;;13.70;99.90;;;;;;5057860;28;19925;-84
2021/10/09 01:53:34;;;;;;;;;;;13.70;99.90;;;;;;5057774;28;19931;-85
2021/10/09 01:56:02;;;;;;;;;;;13.60;99.90;;;;;;5057693;28;19925;-91
2021/10/09 01:58:29;;;;;;;;;;;13.60;99.90;;;;;;5058065;28;20002;-87
2021/10/09 02:00:56;;;;;;;;;;;13.50;99.90;;;;;;5057804;28;19925;-84
2021/10/09 02:03:23;;;;;;;;;;;13.50;99.90;;;;;;5057775;28;19936;-85
2021/10/09 02:05:50;;;;;;;;;;;13.50;99.90;;;;;;5057675;28;19925;-84
2021/10/09 02:08:17;;;;;;;;;;;13.50;99.90;;;;;;5057495;28;19935;-84
2021/10/09 02:10:50;;;;;;;;;;;13.40;99.90;;;;;;5057541;28;19924;-84
2021/10/09 02:13:22;;;;;;;;;;;13.40;99.90;;;;;;5057694;28;19960;-84
2021/10/09 02:15:52;;;;;;;;;;;13.40;99.90;;;;;;5056663;28;20373;-84
2021/10/09 02:26:36;;;;;;;;;;;13.30;99.90;;;;;;5057254;28;20332;-85
2021/10/09 02:29:05;;;;;;;;;;;13.40;99.90;;;;;;5057125;28;20370;-85
2021/10/09 02:31:31;;;;;;;;;;;13.30;99.90;;;;;;5057056;28;19925;-85
2021/10/09 02:33:58;;;;;;;;;;;13.30;99.90;;;;;;5057203;28;19924;-85
2021/10/09 02:36:25;;;;;;;;;;;13.30;99.90;;;;;;5057034;28;19935;-85
2021/10/09 02:38:52;;;;;;;;;;;13.30;99.90;;;;;;5056981;28;19925;-85
2021/10/09 02:41:19;;;;;;;;;;;13.30;99.90;;;;;;5057116;28;19924;-84
2021/10/09 02:43:46;;;;;;;;;;;13.30;99.90;;;;;;5056980;28;19929;-84
2021/10/09 02:46:14;;;;;;;;;;;13.30;99.90;;;;;;5056761;28;19935;-85
2021/10/09 02:48:41;;;;;;;;;;;13.20;99.90;;;;;;5056831;28;19925;-84
2021/10/09 02:51:07;;;;;;;;;;;13.20;99.90;;;;;;5056826;28;19935;-85
2021/10/09 02:53:34;;;;;;;;;;;13.20;99.90;;;;;;5056712;28;19925;-85
2021/10/09 02:56:01;;;;;;;;;;;13.20;99.90;;;;;;5056638;28;19925;-85
2021/10/09 02:58:28;;;;;;;;;;;13.10;99.90;;;;;;5056633;28;19924;-85
2021/10/09 03:00:55;;;;;;;;;;;13.10;99.90;;;;;;5056516;28;19929;-85
2021/10/09 03:03:24;;;;;;;;;;;13.00;99.90;;;;;;5056355;28;19925;-85
2021/10/09 03:05:51;;;;;;;;;;;13.10;99.90;;;;;;5056581;28;19924;-84
2021/10/09 03:08:18;;;;;;;;;;;13.00;99.90;;;;;;5056409;28;19931;-85
2021/10/09 03:10:45;;;;;;;;;;;13.00;99.90;;;;;;5056543;28;19925;-84
2021/10/09 03:13:12;;;;;;;;;;;13.00;99.90;;;;;;5056374;28;19935;-85
2021/10/09 03:15:38;;;;;;;;;;;13.00;99.90;;;;;;5056116;28;19925;-85
2021/10/09 03:18:05;;;;;;;;;;;13.00;99.90;;;;;;5056181;28;19929;-85
2021/10/09 03:20:34;;;;;;;;;;;13.00;99.90;;;;;;5056170;28;19931;-86
2021/10/09 03:23:00;;;;;;;;;;;13.10;99.90;;;;;;5056063;28;19924;-85
2021/10/09 03:25:27;;;;;;;;;;;13.10;99.90;;;;;;5055984;28;19929;-85
2021/10/09 03:27:54;;;;;;;;;;;13.10;99.90;;;;;;5055166;28;19924;-85
2021/10/09 03:30:21;;;;;;;;;;;13.10;99.90;;;;;;5055843;28;19925;-86
2021/10/09 03:32:48;;;;;;;;;;;13.00;99.90;;;;;;5055910;28;19924;-86
2021/10/09 03:35:15;;;;;;;;;;;13.10;99.90;;;;;;5056013;28;19935;-85
2021/10/09 03:37:43;;;;;;;;;;;13.10;99.90;;;;;;5055822;28;19935;-86
2021/10/09 03:40:13;;;;;;;;;;;13.20;99.90;;;;;;5056021;28;20359;-86
2021/10/09 03:42:44;;;;;;;;;;;13.20;99.90;;;;;;5055711;28;19937;-86
2021/10/09 03:45:14;;;;;;;;;;;13.20;99.90;;;;;;5055810;28;20020;-86
2021/10/09 03:48:02;;;;;;;;;;;13.20;99.90;;;;;;5055720;28;20011;-86
2021/10/09 03:53:17;;;;;;;;;;;13.30;99.90;;;;;;5030081;28;19921;-85
2021/10/09 03:55:44;;;;;;;;;;;13.40;99.90;;;;;;5055937;28;19935;-85
2021/10/09 03:58:10;;;;;;;;;;;13.30;99.90;;;;;;5055677;28;19925;-85
2021/10/09 04:00:37;;;;;;;;;;;13.40;99.90;;;;;;5055577;28;19939;-85
2021/10/09 04:03:04;;;;;;;;;;;13.40;99.90;;;;;;5055447;28;19925;-84
2021/10/09 04:05:31;;;;;;;;;;;13.40;99.90;;;;;;5055411;28;19924;-85
2021/10/09 04:07:58;;;;;;;;;;;13.40;99.90;;;;;;5055068;28;19939;-84
2021/10/09 04:10:26;;;;;;;;;;;13.40;99.90;;;;;;5055280;28;19925;-84
2021/10/09 04:12:53;;;;;;;;;;;13.40;99.90;;;;;;5055192;28;19943;-87
2021/10/09 04:15:20;;;;;;;;;;;13.50;99.90;;;;;;5055225;28;19925;-87
2021/10/09 04:17:47;;;;;;;;;;;13.50;99.90;;;;;;5055227;28;19925;-87
2021/10/09 04:20:14;;;;;;;;;;;13.50;99.90;;;;;;5055216;28;19931;-87
2021/10/09 04:22:41;;;;;;;;;;;13.50;99.90;;;;;;5055094;28;19925;-85
2021/10/09 04:25:08;;;;;;;;;;;13.50;99.90;;;;;;5055330;28;19924;-85
2021/10/09 04:27:36;;;;;;;;;;;13.50;99.90;;;;;;5055192;28;19925;-84
2021/10/09 04:30:04;;;;;;;;;;;13.50;99.90;;;;;;5054984;28;19929;-85
2021/10/09 04:32:30;;;;;;;;;;;13.50;99.90;;;;;;5054964;28;19925;-85
2021/10/09 04:34:57;;;;;;;;;;;13.50;99.90;;;;;;5055077;28;19932;-85
2021/10/09 04:37:24;;;;;;;;;;;13.50;99.90;;;;;;5054731;28;19925;-85
2021/10/09 04:39:51;;;;;;;;;;;13.50;99.90;;;;;;5055012;28;19925;-85
2021/10/09 04:42:18;;;;;;;;;;;13.50;99.90;;;;;;5054884;28;19935;-85
2021/10/09 04:44:47;;;;;;;;;;;13.50;99.90;;;;;;5055030;28;19925;-84
2021/10/09 04:47:13;;;;;;;;;;;13.50;99.90;;;;;;5054609;28;20381;-84
2021/10/09 04:49:40;;;;;;;;;;;13.50;99.90;;;;;;5054728;28;19924;-85
2021/10/09 04:52:07;;;;;;;;;;;13.50;99.90;;;;;;5054669;28;19939;-85
2021/10/09 04:54:34;;;;;;;;;;;13.60;99.90;;;;;;5054781;28;19925;-85
2021/10/09 04:57:01;;;;;;;;;;;13.50;99.90;;;;;;5054790;28;19924;-85
2021/10/09 04:59:28;;;;;;;;;;;13.60;99.90;;;;;;5054777;28;19947;-85
2021/10/09 05:01:56;;;;;;;;;;;13.60;99.90;;;;;;5054674;28;19939;-85
2021/10/09 05:04:23;;;;;;;;;;;13.60;99.90;;;;;;5054601;28;20244;-84
2021/10/09 05:06:49;;;;;;;;;;;13.60;99.90;;;;;;5054289;28;19925;-86
2021/10/09 05:09:16;;;;;;;;;;;13.60;99.90;;;;;;5054712;28;19924;-86
2021/10/09 05:11:43;;;;;;;;;;;13.60;99.90;;;;;;5054516;28;19925;-86
2021/10/09 05:14:10;;;;;;;;;;;13.60;99.90;;;;;;5054621;28;19932;-86
2021/10/09 05:16:37;;;;;;;;;;;13.60;99.90;;;;;;5054477;28;19925;-85
2021/10/09 05:19:10;;;;;;;;;;;13.60;99.90;;;;;;5054524;28;19939;-84
2021/10/09 05:21:36;;;;;;;;;;;13.60;99.90;;;;;;5054470;28;20263;-84
2021/10/09 05:24:03;;;;;;;;;;;13.70;99.90;;;;;;5054422;28;20373;-84
2021/10/09 05:26:31;;;;;;;;;;;13.70;99.90;;;;;;5054420;28;20019;-84
2021/10/09 05:28:58;;;;;;;;;;;13.70;99.90;;;;;;5054495;28;19925;-84
2021/10/09 05:31:26;;;;;;;;;;;13.70;99.90;;;;;;5054303;28;20018;-85
2021/10/09 05:33:53;;;;;;;;;;;13.70;99.90;;;;;;5054232;28;19932;-84
2021/10/09 05:36:21;;;;;;;;;;;13.70;99.90;;;;;;5054480;28;20362;-84
2021/10/09 05:38:48;;;;;;;;;;;13.70;99.90;;;;;;5054358;28;19942;-85
2021/10/09 05:41:15;;;;;;;;;;;13.70;99.90;;;;;;5054341;28;20278;-84
2021/10/09 05:43:43;;;;;;;;;;;13.70;99.90;;;;;;5054190;28;20358;-84
2021/10/09 05:46:10;;;;;;;;;;;13.70;99.90;;;;;;5054201;28;19928;-85
2021/10/09 05:48:38;;;;;;;;;;;13.70;99.90;;;;;;5054184;28;19943;-85
2021/10/09 05:51:08;;;;;;;;;;;13.70;99.90;;;;;;5056746;28;19924;-84
2021/10/09 05:53:53;;;;;;;;;;;13.70;99.90;;;;;;5057940;28;19935;-85
2021/10/09 05:56:27;;;;;;;;;;;13.70;99.90;;;;;;5057970;28;20022;-84
2021/10/09 05:59:07;;;;;;;;;;;13.70;99.90;;;;;;5057731;28;19960;-86
2021/10/09 06:59:26;;;;;;;;;;;13.80;99.90;;;;;;5076874;28;19943;-76
2021/10/09 06:59:33;;;;;;;;;;;13.90;99.90;;;;;;5076779;28;19999;-76
2021/10/09 07:01:59;;;;;;;;;;;13.90;99.90;;;;;;5076656;28;20366;-76
2021/10/09 07:04:26;;;;;;;;;;;13.90;99.90;;;;;;5076360;28;19932;-77
2021/10/09 07:06:54;;;;;;;;;;;13.90;99.90;;;;;;5075966;28;19924;-75
2021/10/09 07:09:21;;;;;;;;;;;13.90;99.90;;;;;;5076372;28;20278;-77
2021/10/09 07:11:48;;;;;;;;;;;14.00;99.90;;;;;;5076368;28;19925;-76
2021/10/09 07:14:15;;;;;;;;;;;14.00;99.90;;;;;;5076194;28;19935;-76
2021/10/09 07:16:43;;;;;;;;;;;14.00;99.90;;;;;;5076428;28;19924;-75
2021/10/09 07:19:10;;;;;;;;;;;14.00;99.90;;;;;;5076190;28;20385;-75
2021/10/09 07:21:37;;;;;;;;;;;14.00;99.90;;;;;;5076271;28;19924;-75
2021/10/09 07:24:04;;;;;;;;;;;14.00;99.90;;;;;;5076090;28;19928;-75
2021/10/09 07:26:31;;;;;;;;;;;14.10;99.90;;;;;;5076044;28;19938;-75
2021/10/09 07:28:58;;;;;;;;;;;14.10;99.90;;;;;;5075897;28;19925;-75
2021/10/09 07:31:28;;;;;;;;;;;14.10;99.90;;;;;;5075970;28;20362;-75
2021/10/09 07:33:57;;;;;;;;;;;14.10;99.90;;;;;;5075927;28;19928;-76
2021/10/09 07:36:23;;;;;;;;;;;14.10;99.90;;;;;;5075903;28;19925;-77
2021/10/09 07:38:50;;;;;;;;;;;14.20;99.90;;;;;;5075903;28;20284;-75
2021/10/09 07:41:17;;;;;;;;;;;14.20;99.90;;;;;;5075727;28;20357;-75
2021/10/09 07:43:44;;;;;;;;;;;14.30;99.90;;;;;;5075624;28;19924;-76
2021/10/09 07:46:11;;;;;;;;;;;14.30;99.90;;;;;;5075764;28;19929;-76
2021/10/09 07:48:38;;;;;;;;;;;14.30;99.90;;;;;;5075511;28;19924;-75
2021/10/09 07:51:06;;;;;;;;;;;14.30;99.90;;;;;;5075756;28;19924;-75
2021/10/09 07:53:33;;;;;;;;;;;14.40;99.90;;;;;;5075539;28;19928;-77
2021/10/09 07:56:00;;;;;;;;;;;14.40;99.90;;;;;;5075449;28;19924;-76
2021/10/09 07:58:26;;;;;;;;;;;14.40;99.90;;;;;;5075820;28;19924;-76
2021/10/09 08:00:53;;;;;;;;;;;14.40;99.90;;;;;;5075619;28;20278;-76
2021/10/09 08:03:24;;;;;;;;;;;14.50;99.90;;;;;;5075400;28;19928;-76
2021/10/09 08:05:52;;;;;;;;;;;14.50;99.90;;;;;;5075630;28;19929;-76
2021/10/09 08:08:20;;;;;;;;;;;14.50;99.90;;;;;;5075131;28;19968;-75
2021/10/09 08:10:47;;;;;;;;;;;14.50;99.90;;;;;;5075290;28;20232;-76
2021/10/09 08:13:14;;;;;;;;;;;14.50;99.90;;;;;;5074922;28;19974;-75
2021/10/09 08:15:42;;;;;;;;;;;14.60;99.90;;;;;;5075218;28;19935;-76
2021/10/09 08:18:08;;;;;;;;;;;14.60;99.90;;;;;;5075326;28;19924;-75
2021/10/09 08:20:36;;;;;;;;;;;14.60;99.90;;;;;;5075249;28;19931;-76
2021/10/09 08:23:05;;;;;;;;;;;14.60;99.90;;;;;;5075091;28;20017;-76
2021/10/09 08:36:35;;;;;;;;;;;14.80;99.90;;;;;;5075236;28;19935;-77
2021/10/09 08:39:01;;;;;;;;;;;14.80;99.90;;;;;;5075013;28;19924;-76
2021/10/09 08:41:29;;;;;;;;;;;14.80;99.90;;;;;;5074925;28;20338;-77
2021/10/09 08:43:56;;;;;;;;;;;14.80;99.90;;;;;;5075238;28;19925;-76
2021/10/09 08:46:23;;;;;;;;;;;14.80;99.90;;;;;;5075105;28;19933;-75
2021/10/09 08:48:51;;;;;;;;;;;14.90;99.90;;;;;;5067778;28;19932;-75
2021/10/09 08:51:19;;;;;;;;;;;14.90;99.90;;;;;;5063429;28;19924;-75
2021/10/09 08:53:46;;;;;;;;;;;14.90;99.90;;;;;;5064244;28;20343;-76
2021/10/09 08:56:27;;;;;;;;;;;14.90;99.90;;;;;;5065382;28;19932;-75
2021/10/09 08:58:55;;;;;;;;;;;14.90;99.90;;;;;;5074534;28;19924;-76
2021/10/09 09:01:24;;;;;;;;;;;15.00;99.90;;;;;;5074383;28;19924;-75
2021/10/09 09:09:30;;;;;;;;;;;15.10;99.90;;;;;;5034131;28;20339;-75
2021/10/09 09:26:13;;;;;;;;;;;15.40;99.90;;;;;;5077040;28;19927;-75
2021/10/09 09:31:44;;;;;;;;;;;15.50;99.90;;;;;;5078429;28;19977;-76
2021/10/09 09:34:23;;;;;;;;;;;15.50;99.90;;;;;;5078403;28;19934;-77
2021/10/09 09:37:06;;;;;;;;;;;15.60;99.90;;;;;;5078540;28;20227;-76
2021/10/09 09:39:36;;;;;;;;;;;15.60;99.90;;;;;;5078278;28;20476;-75
2021/10/09 09:42:03;;;;;;;;;;;15.60;99.90;;;;;;5078253;28;19924;-76
2021/10/09 09:44:30;;;;;;;;;;;15.70;99.90;;;;;;5077917;28;19935;-75
2021/10/09 09:47:05;;;;;;;;;;;15.70;99.90;;;;;;5078039;28;19924;-75
2021/10/09 09:49:32;;;;;;;;;;;15.70;99.90;;;;;;5059821;28;19932;-76
2021/10/09 09:51:59;;;;;;;;;;;15.70;99.90;;;;;;5056403;28;20277;-75
2021/10/09 09:54:38;;;;;;;;;;;15.80;99.90;;;;;;5057862;28;19925;-74
2021/10/09 09:57:05;;;;;;;;;;;15.80;99.90;;;;;;5053106;28;19932;-75
2021/10/09 09:59:32;;;;;;;;;;;15.80;99.90;;;;;;5057799;28;20028;-74
2021/10/09 10:02:01;;;;;;;;;;;15.80;99.90;;;;;;5057686;28;19931;-74
2021/10/09 10:04:29;;;;;;;;;;;15.90;99.90;;;;;;5057833;28;19925;-74
2021/10/09 10:06:57;;;;;;;;;;;15.90;99.90;;;;;;5057705;28;19940;-74
2021/10/09 10:09:26;;;;;;;;;;;15.90;99.90;;;;;;5057916;28;20030;-75
2021/10/09 10:11:53;;;;;;;;;;;15.90;99.90;;;;;;5057420;28;19925;-74
2021/10/09 10:14:20;;;;;;;;;;;15.90;99.90;;;;;;5057543;28;20228;-74
2021/10/09 10:16:48;;;;;;;;;;;15.90;99.90;;;;;;5057511;28;19925;-76
2021/10/09 10:19:15;;;;;;;;;;;16.00;99.90;;;;;;5057497;28;19925;-74
2021/10/09 10:21:49;;;;;;;;;;;16.00;99.90;;;;;;5057423;28;19925;-75
2021/10/09 10:24:34;;;;;;;;;;;16.00;99.90;;;;;;5057160;28;19932;-76
2021/10/09 10:27:15;;;;;;;;;;;16.10;99.90;;;;;;5047265;28;19924;-75
2021/10/09 10:29:42;;;;;;;;;;;16.20;99.90;;;;;;5057045;28;19925;-76
2021/10/09 10:32:12;;;;;;;;;;;16.20;99.90;;;;;;5057259;28;19925;-75
2021/10/09 10:34:39;;;;;;;;;;;16.20;99.90;;;;;;5057144;28;20244;-75
2021/10/09 10:37:07;;;;;;;;;;;16.20;99.90;;;;;;5056697;28;19978;-75
2021/10/09 10:39:41;;;;;;;;;;;16.20;99.90;;;;;;5056950;28;20262;-75
2021/10/09 10:42:14;;;;;;;;;;;16.20;99.90;;;;;;5056850;28;19974;-75
2021/10/09 10:44:46;;;;;;;;;;;16.30;99.90;;;;;;5055538;28;19935;-75
2021/10/09 10:47:28;;;;;;;;;;;16.30;99.90;;;;;;5056968;28;19925;-75
2021/10/09 10:50:06;;;;;;;;;;;16.30;99.90;;;;;;5044311;28;20354;-76
2021/10/09 10:52:55;;;;;;;;;;;16.30;99.90;;;;;;5056818;28;20015;-74
2021/10/09 10:55:22;;;;;;;;;;;16.30;99.90;;;;;;5056745;28;19925;-74
2021/10/09 10:58:08;;;;;;;;;;;16.40;99.90;;;;;;5056663;28;19924;-74
2021/10/09 11:00:34;;;;;;;;;;;16.40;99.90;;;;;;5056567;28;19935;-74
2021/10/09 11:03:01;;;;;;;;;;;16.60;99.90;;;;;;5056390;28;19935;-74
2021/10/09 11:05:28;;;;;;;;;;;16.60;99.90;;;;;;5056363;28;19925;-75
2021/10/09 11:07:56;;;;;;;;;;;16.70;99.90;;;;;;5055990;28;19929;-74
2021/10/09 11:10:23;;;;;;;;;;;16.70;99.90;;;;;;5056151;28;19935;-74
2021/10/09 11:12:51;;;;;;;;;;;16.70;99.90;;;;;;5056269;28;19932;-74
2021/10/09 11:15:22;;;;;;;;;;;16.70;99.90;;;;;;5056472;28;19925;-74
2021/10/09 11:17:50;;;;;;;;;;;16.70;99.90;;;;;;5056488;28;19932;-74
2021/10/09 11:20:23;;;;;;;;;;;16.70;99.90;;;;;;5056089;28;20135;-74
2021/10/09 11:22:50;;;;;;;;;;;16.70;99.90;;;;;;5056121;28;19924;-75
2021/10/09 11:25:26;;;;;;;;;;;16.70;99.90;;;;;;5058615;28;19925;-75
2021/10/09 11:27:52;;;;;;;;;;;16.70;99.90;;;;;;5056472;28;19986;-75
2021/10/09 11:30:19;;;;;;;;;;;16.70;99.90;;;;;;5056234;28;19925;-74
2021/10/09 11:32:46;;;;;;;;;;;16.80;99.90;;;;;;5056099;28;19924;-75
2021/10/09 11:35:13;;;;;;;;;;;16.80;99.90;;;;;;5055996;28;19925;-75
2021/10/09 11:37:47;;;;;;;;;;;16.80;99.90;;;;;;5055865;28;20394;-74
2021/10/09 11:40:14;;;;;;;;;;;16.80;99.90;;;;;;5056150;28;19935;-75
2021/10/09 11:42:51;;;;;;;;;;;16.80;99.90;;;;;;5055769;28;19931;-75
2021/10/09 11:45:24;;;;;;;;;;;16.90;99.90;;;;;;5055723;28;19925;-75
2021/10/09 11:53:40;;;;;;;;;;;16.90;99.90;;;;;;5055727;28;19943;-74
2021/10/09 11:56:24;;;;;;;;;;;17.00;99.90;;;;;;5112941;27;20348;-76
2021/10/09 11:58:54;;;;;;;;;;;17.10;99.90;;;;;;5112917;28;19934;-76
2021/10/09 12:01:27;;;;;;;;;;;17.10;99.90;;;;;;5113114;28;19924;-75
2021/10/09 12:03:54;;;;;;;;;;;17.10;99.90;;;;;;5113067;28;19946;-76
2021/10/09 12:06:21;;;;;;;;;;;17.10;99.90;;;;;;5112750;28;20348;-76
2021/10/09 12:08:48;;;;;;;;;;;17.10;99.90;;;;;;5112755;28;19934;-76
2021/10/09 12:11:16;;;;;;;;;;;17.10;99.90;;;;;;5112994;28;19924;-75
2021/10/09 12:13:48;;;;;;;;;;;17.10;99.90;;;;;;5112620;28;20275;-76
2021/10/09 12:16:17;;;;;;;;;;;17.10;99.90;;;;;;5112483;28;19928;-76
2021/10/09 12:18:48;;;;;;;;;;;17.10;99.90;;;;;;5111216;28;19977;-76
2021/10/09 12:21:15;;;;;;;;;;;17.10;99.90;;;;;;5112759;28;19928;-76
2021/10/09 12:23:42;;;;;;;;;;;17.20;99.90;;;;;;5112503;28;19934;-76
2021/10/09 12:26:13;;;;;;;;;;;17.20;99.90;;;;;;5112745;28;19982;-76
2021/10/09 12:28:58;;;;;;;;;;;17.20;99.90;;;;;;5112600;28;19924;-76
2021/10/09 12:31:30;;;;;;;;;;;17.10;99.90;;;;;;5112413;28;19950;-76
2021/10/09 12:33:57;;;;;;;;;;;17.10;99.90;;;;;;5112255;28;19924;-76
2021/10/09 12:36:32;;;;;;;;;;;17.10;99.90;;;;;;5112353;28;20318;-76
2021/10/09 12:39:14;;;;;;;;;;;17.10;99.90;;;;;;5112255;28;20019;-76
2021/10/09 12:41:41;;;;;;;;;;;17.10;99.90;;;;;;5112153;28;19924;-76
2021/10/09 12:44:08;;;;;;;;;;;17.00;99.90;;;;;;5112083;28;19924;-76
2021/10/09 12:46:36;;;;;;;;;;;17.10;99.90;;;;;;5112096;28;19924;-75
2021/10/09 12:49:03;;;;;;;;;;;17.10;99.90;;;;;;5111548;28;19928;-76
2021/10/09 12:51:30;;;;;;;;;;;17.20;99.90;;;;;;5112207;28;19931;-76
2021/10/09 12:54:03;;;;;;;;;;;17.20;99.90;;;;;;5112128;28;20023;-77
2021/10/09 12:56:30;;;;;;;;;;;17.20;99.90;;;;;;5132213;27;20347;-76
2021/10/09 12:58:57;;;;;;;;;;;17.10;99.90;;;;;;5132228;28;19930;-76
2021/10/09 13:01:24;;;;;;;;;;;17.10;99.90;;;;;;5132155;27;19931;-76
2021/10/09 13:03:52;;;;;;;;;;;17.10;99.90;;;;;;5132172;28;19924;-76
2021/10/09 13:06:19;;;;;;;;;;;17.10;99.90;;;;;;5126632;28;19924;-76
2021/10/09 13:08:49;;;;;;;;;;;17.00;99.90;;;;;;5118463;28;19928;-76
2021/10/09 13:11:20;;;;;;;;;;;17.10;99.90;;;;;;5118332;28;19927;-76
2021/10/09 13:13:47;;;;;;;;;;;17.00;99.90;;;;;;5118399;28;19924;-76
2021/10/09 13:16:15;;;;;;;;;;;16.90;99.90;;;;;;5118258;28;20328;-76
2021/10/09 13:18:42;;;;;;;;;;;17.00;99.90;;;;;;5117854;28;19924;-76
2021/10/09 13:21:10;;;;;;;;;;;16.90;99.90;;;;;;5118428;28;20026;-76
2021/10/09 13:23:37;;;;;;;;;;;16.90;99.90;;;;;;5118231;28;19949;-76
2021/10/09 13:26:04;;;;;;;;;;;16.80;99.90;;;;;;5117831;28;19935;-76
2021/10/09 13:28:31;;;;;;;;;;;16.80;99.90;;;;;;5118072;28;19934;-75
2021/10/09 13:30:58;;;;;;;;;;;16.90;99.90;;;;;;5117915;28;20271;-76
2021/10/09 13:33:25;;;;;;;;;;;16.90;99.90;;;;;;5117914;28;19923;-76
2021/10/09 13:35:52;;;;;;;;;;;16.80;99.90;;;;;;5117973;28;19950;-76
2021/10/09 13:38:20;;;;;;;;;;;16.80;99.90;;;;;;5117907;28;20263;-76
2021/10/09 13:40:53;;;;;;;;;;;16.80;99.90;;;;;;5117786;28;19923;-76
2021/10/09 13:43:20;;;;;;;;;;;16.80;99.90;;;;;;5117279;28;20255;-76
2021/10/09 13:45:49;;;;;;;;;;;16.80;99.90;;;;;;5117539;28;19934;-76
2021/10/09 13:48:16;;;;;;;;;;;16.80;99.90;;;;;;5117572;28;19990;-76
2021/10/09 13:50:47;;;;;;;;;;;16.80;99.90;;;;;;5117423;28;19924;-76
2021/10/09 13:53:15;;;;;;;;;;;16.80;99.90;;;;;;5117650;28;20010;-76
2021/10/09 13:55:47;;;;;;;;;;;16.80;99.90;;;;;;5117259;28;19980;-76
2021/10/09 13:58:14;;;;;;;;;;;16.80;99.90;;;;;;5117717;28;19974;-76
2021/10/09 14:00:41;;;;;;;;;;;16.80;99.90;;;;;;5117499;28;19924;-77
2021/10/09 14:03:08;;;;;;;;;;;16.80;99.90;;;;;;5117594;28;19923;-75
2021/10/09 14:05:37;;;;;;;;;;;16.80;99.90;;;;;;5117392;28;19977;-76
2021/10/09 14:08:07;;;;;;;;;;;16.80;99.90;;;;;;5117220;28;19949;-76
2021/10/09 14:10:34;;;;;;;;;;;16.80;99.90;;;;;;5117137;28;19931;-76
2021/10/09 14:13:05;;;;;;;;;;;16.80;99.90;;;;;;5117088;28;20357;-75
2021/10/09 14:15:32;;;;;;;;;;;16.80;99.90;;;;;;5117100;28;19958;-76
2021/10/09 14:18:01;;;;;;;;;;;16.80;99.90;;;;;;5116023;28;20245;-76
2021/10/09 14:20:28;;;;;;;;;;;16.80;99.90;;;;;;5116798;28;19924;-76
2021/10/09 14:22:55;;;;;;;;;;;16.80;99.90;;;;;;5117121;28;20327;-75
2021/10/09 14:25:22;;;;;;;;;;;16.80;99.90;;;;;;5116706;28;20236;-75
2021/10/09 14:27:49;;;;;;;;;;;16.80;99.90;;;;;;5116898;28;19932;-76
2021/10/09 14:30:17;;;;;;;;;;;16.80;99.90;;;;;;5116748;28;19971;-76
2021/10/09 14:32:44;;;;;;;;;;;16.80;99.90;;;;;;5116862;28;19977;-75
2021/10/09 14:35:11;;;;;;;;;;;16.80;99.90;;;;;;5116825;28;19923;-76
2021/10/09 14:37:38;;;;;;;;;;;16.80;99.90;;;;;;5117038;28;19934;-76
2021/10/09 14:40:05;;;;;;;;;;;16.80;99.90;;;;;;5116649;28;20034;-76
2021/10/09 14:42:32;;;;;;;;;;;16.80;99.90;;;;;;5116772;28;20364;-78
2021/10/09 14:44:59;;;;;;;;;;;16.70;99.90;;;;;;5116993;28;19930;-76
2021/10/09 14:50:34;;;;;;;;;;;16.70;99.90;;;;;;5073870;28;19924;-76
2021/10/09 14:53:18;;;;;;;;;;;16.70;99.90;;;;;;5073370;28;20416;-76
2021/10/09 15:20:27;;;;;;;;;;;16.20;99.90;;;;;;5071569;28;19921;-75
2021/10/09 15:22:54;;;;;;;;;;;16.20;99.90;;;;;;5073628;28;19935;-75
2021/10/09 15:25:20;;;;;;;;;;;16.20;99.90;;;;;;5109703;28;20319;-75
2021/10/09 15:27:47;;;;;;;;;;;16.20;99.90;;;;;;5116084;28;19943;-75
2021/10/09 15:30:14;;;;;;;;;;;16.20;99.90;;;;;;5115452;28;20232;-75
2021/10/09 15:32:41;;;;;;;;;;;16.10;99.90;;;;;;5115756;28;19924;-75
2021/10/09 15:35:08;;;;;;;;;;;16.10;99.90;;;;;;5115673;28;19927;-75
2021/10/09 15:37:36;;;;;;;;;;;16.10;99.90;;;;;;5115656;28;19934;-76
2021/10/09 15:40:03;;;;;;;;;;;16.00;99.90;;;;;;5115589;28;19928;-75
2021/10/09 15:42:30;;;;;;;;;;;16.00;99.90;;;;;;5115457;28;19923;-75
2021/10/09 15:44:57;;;;;;;;;;;16.00;99.90;;;;;;5115575;28;19935;-75
2021/10/09 15:47:24;;;;;;;;;;;16.00;99.90;;;;;;5115499;28;19953;-75
2021/10/09 15:49:53;;;;;;;;;;;16.00;99.90;;;;;;5115278;28;19934;-75
2021/10/09 15:52:19;;;;;;;;;;;16.00;99.90;;;;;;5115528;28;19969;-74
2021/10/09 15:54:48;;;;;;;;;;;16.00;99.90;;;;;;5115057;28;19924;-74
2021/10/09 15:57:14;;;;;;;;;;;16.00;99.90;;;;;;5115588;28;19924;-75
2021/10/09 15:59:41;;;;;;;;;;;16.00;99.90;;;;;;5115527;28;20359;-75
2021/10/09 16:02:08;;;;;;;;;;;16.00;99.90;;;;;;5115444;28;19928;-75
2021/10/09 16:04:35;;;;;;;;;;;16.00;99.90;;;;;;5115595;28;19935;-75
2021/10/09 16:07:03;;;;;;;;;;;16.00;99.90;;;;;;5115266;28;19947;-75
2021/10/09 16:09:30;;;;;;;;;;;15.90;99.90;;;;;;5115301;28;19924;-75
2021/10/09 16:11:58;;;;;;;;;;;15.90;99.90;;;;;;5115645;28;19934;-95
2021/10/09 16:14:25;;;;;;;;;;;15.90;99.90;;;;;;5115960;28;19924;-85
2021/10/09 16:16:52;;;;;;;;;;;15.90;99.90;;;;;;5115525;28;19924;-75
2021/10/09 16:19:19;;;;;;;;;;;16.00;99.90;;;;;;5115013;28;19950;-75
2021/10/09 16:21:48;;;;;;;;;;;15.90;99.90;;;;;;5114861;28;19924;-75
2021/10/09 16:24:15;;;;;;;;;;;16.00;99.90;;;;;;5115017;28;19924;-76
2021/10/09 16:26:41;;;;;;;;;;;15.90;99.90;;;;;;5115201;28;19928;-77
2021/10/09 16:29:10;;;;;;;;;;;15.90;99.90;;;;;;5115130;28;19928;-76
2021/10/09 16:31:37;;;;;;;;;;;15.90;99.90;;;;;;5115376;28;19924;-76
2021/10/09 16:34:05;;;;;;;;;;;15.80;99.90;;;;;;5115199;28;20263;-78
2021/10/09 16:36:32;;;;;;;;;;;15.80;99.90;;;;;;5115064;28;19924;-86